Clifton, KS

6:36 PM CDT on August 01, 2014 (GMT -0500)
Clay County Medical Center (KKSCLAYC2) Elev 1274 ft | 39.39 °N, 97.12 °W | Change Station

Current weather conditions updated 13 seconds ago

Clear
Clear
86.7 °F
Feels Like 89 °F
N
4.0
Wind Variable Wind from NNW
Gusts 9.0 mph

Tomorrow is forecast to be nearly the same temperature as today.

Today
High -- | Low -- °F
--% Chance of Precip.
Yesterday
High -- | Low -- °F
Precip. -- in
6:28 AM 8:41 PM
Waxing Crescent, 30% visible
Pressure 30.01 in
Visibility 10.0 miles
Clouds Clear
Heat Index 89 °F
Dew Point 65 °F
Humidity 49%
Rainfall 0.00 in
Snow Depth Not available.
UV 3 out of 12
Pollen 7.30 out of 12
Air Quality Not available.
Flu Activity Not available.
METAR KCNK 012255Z AUTO 02012KT 10SM CLR 29/15 A3004 RMK AO2 SLP160 T02940150

More Conditions Fewer Conditions

Pressure 30.01 in
Visibility 10.0 miles
Clouds Clear
Heat Index 89 °F
Dew Point 65 °F
Humidity 49%
Rainfall 0.00 in
Snow Depth Not available.
UV 3 out of 12
Pollen 7.30 out of 12
Air Quality Not available.
Flu Activity Not available.
METAR KCNK 012255Z AUTO 02012KT 10SM CLR 29/15 A3004 RMK AO2 SLP160 T02940150

More Conditions Fewer Conditions

10-Day Weather Forecast

Almanac

Astronomy

Aug. 01, 2014 Rise Set
Actual Time 6:28 AM CDT 8:41 PM CDT
Civil Twilight 5:58 AM CDT 9:11 PM CDT
Nautical Twilight 5:21 AM CDT 9:48 PM CDT
Astronomical Twilight 4:41 AM CDT 10:28 PM CDT
Moon 11:52 AM CDT 11:28 PM CDT
Length of Visible Light 15h 13m
Length of Day
14h 13m
Tomorrow will be 1m 58s shorter.
Waxing Crescent, 30% of the Moon is Illuminated
Today
Waxing Crescent
Aug 3
First Quarter
Aug 10
Full
Aug 17
Last Quarter
Aug 25
New

Today's Extremes

State Highs State Lows

Community

WunderPhotos

Upload Photos

1,739,759 photos uploaded!

Nearby

Snow Depth

Station Depth Elevation
No new snow has been reported.

Earthquake Activity

City Distance Mag. Time & Date
No recent earthquake activity has been reported nearby.
Minimum magnitude displayed is 2.5.

Coastal Water Temperatures

Place Temperature
No Stations Reporting

Nearby Weather Stations

Station Location Temp. Heat Index Dew Point Humidity Wind Precip. Elev Updated Type
Clay County Medical Center, Clay Center, KS 86.7 °F 89 °F 65 °F 49% NNW  at  4.0 mph 0.00 in / hr 1274 ft 6:36 PM CDT Rapid Fire
SW of Idana, Clay Center, KS 85.7 °F 87 °F 65 °F 50% NNW  at  8.0 mph 0.00 in / hr 1298 ft 6:26 PM CDT Normal
Joe's Place, Concordia, KS 83.3 °F 84 °F 63 °F 50% NNE  at  0.0 mph 0.00 in / hr 1440 ft 6:36 PM CDT Rapid Fire

Show More Stations Show Fewer Stations